Time;durP1;ratioP1;P1;durP2;ratioP2;P2;SDS_P1;SDS_P2;PMS_P1;PMS_P2;Temp;Humidity;BMP_temperature;BMP_pressure;BME280_temperature;BME280_humidity;BME280_pressure;Samples;Min_cycle;Max_cycle;Signal;HPM_P1;HPM_P2
2021/12/17 00:03:07;;;;;;;58.80;23.67;;;;;;;7.68;84.32;102775.25;8628239;33;21013;-77
2021/12/17 00:07:52;;;;;;;54.95;24.88;;;;;;;7.66;84.36;102777.09;8673893;33;20233;-76
2021/12/17 00:12:56;;;;;;;62.95;24.67;;;;;;;7.59;84.33;102767.50;8655955;33;20682;-77
2021/12/17 00:18:07;;;;;;;55.13;24.20;;;;;;;7.55;84.36;102772.06;8654739;33;20651;-76
2021/12/17 00:50:06;;;;;;;56.80;24.77;;;;;;;7.37;84.64;102744.06;8693603;33;20183;-76
2021/12/17 00:55:11;;;;;;;50.55;22.98;;;;;;;7.39;84.68;102749.38;8693976;33;20234;-76
2021/12/17 01:00:19;;;;;;;52.28;23.38;;;;;;;7.49;84.77;102750.88;8717077;33;20183;-76
2021/12/17 01:05:27;;;;;;;44.75;20.30;;;;;;;7.57;84.29;102748.84;8718253;33;20181;-76
2021/12/17 01:10:38;;;;;;;46.00;21.40;;;;;;;7.63;83.75;102748.63;8692147;33;20451;-77
2021/12/17 01:16:09;;;;;;;46.53;22.15;;;;;;;7.66;83.69;102750.34;8716391;33;20583;-77
2021/12/17 01:21:41;;;;;;;45.53;20.27;;;;;;;7.54;83.47;102753.38;8691168;33;20163;-76
2021/12/17 01:44:21;;;;;;;38.40;18.70;;;;;;;7.54;82.98;102754.25;8691260;33;20144;-77
2021/12/17 02:00:15;;;;;;;46.08;19.73;;;;;;;7.37;83.78;102762.78;8728697;33;20183;-77
2021/12/17 02:05:20;;;;;;;45.00;19.90;;;;;;;7.37;83.86;102756.56;8730172;33;20152;-76
2021/12/17 02:21:37;;;;;;;50.45;21.13;;;;;;;7.55;83.80;102768.53;8663865;33;20191;-77
2021/12/17 02:32:02;;;;;;;41.50;18.73;;;;;;;7.62;83.84;102784.31;8714352;33;20295;-77
2021/12/17 02:37:11;;;;;;;46.33;20.63;;;;;;;7.63;84.00;102780.75;8716029;33;20314;-77
2021/12/17 02:48:10;;;;;;;40.67;19.42;;;;;;;7.41;84.42;102764.47;8712925;33;20179;-77
2021/12/17 02:53:16;;;;;;;45.20;17.95;;;;;;;7.17;85.74;102768.72;8690422;33;23191;-76
2021/12/17 02:58:23;;;;;;;39.90;18.67;;;;;;;6.89;87.25;102752.59;8690593;33;20241;-76
2021/12/17 03:03:31;;;;;;;40.95;15.98;;;;;;;7.11;87.04;102752.00;8689732;33;20214;-76
2021/12/17 03:08:38;;;;;;;38.20;16.00;;;;;;;7.12;87.25;102743.06;8715021;33;20314;-76
2021/12/17 03:13:44;;;;;;;32.85;14.75;;;;;;;7.17;86.97;102742.00;8713533;33;21007;-76
2021/12/17 03:19:00;;;;;;;35.70;16.73;;;;;;;7.27;87.07;102745.28;8714911;33;20282;-76
2021/12/17 03:24:06;;;;;;;37.63;16.00;;;;;;;7.32;87.17;102761.16;8713970;33;20163;-76
2021/12/17 03:29:10;;;;;;;36.30;16.73;;;;;;;7.38;86.97;102756.53;8714236;33;22097;-76
2021/12/17 03:34:21;;;;;;;34.53;15.60;;;;;;;7.36;87.05;102766.41;8688783;33;20249;-75
2021/12/17 03:39:31;;;;;;;37.30;16.25;;;;;;;7.42;87.00;102781.38;8713320;33;20220;-76
2021/12/17 03:44:35;;;;;;;32.85;14.93;;;;;;;7.30;87.18;102771.94;8688328;33;20140;-76
2021/12/17 03:49:48;;;;;;;31.45;14.73;;;;;;;7.27;87.30;102783.59;8713074;33;20669;-76
2021/12/17 03:54:53;;;;;;;39.28;16.45;;;;;;;7.23;87.30;102787.25;8689350;33;20162;-76
2021/12/17 03:59:57;;;;;;;35.78;15.63;;;;;;;7.23;87.55;102779.25;8739705;33;20193;-76
2021/12/17 04:05:08;;;;;;;34.80;14.18;;;;;;;7.27;87.59;102788.94;8718011;33;21018;-76
2021/12/17 04:10:19;;;;;;;32.95;14.85;;;;;;;7.37;87.67;102794.00;8717030;33;20162;-76
2021/12/17 04:15:34;;;;;;;34.25;16.23;;;;;;;7.41;87.91;102779.63;8716107;33;20185;-76
2021/12/17 04:20:37;;;;;;;34.47;15.63;;;;;;;7.44;87.79;102782.22;8717132;33;21788;-76
2021/12/17 04:25:43;;;;;;;32.65;13.65;;;;;;;7.33;88.05;102770.97;8717788;33;20674;-75
2021/12/17 04:30:49;;;;;;;32.08;14.65;;;;;;;7.24;87.93;102762.28;8692337;33;20210;-77
2021/12/17 04:35:52;;;;;;;30.73;14.73;;;;;;;7.09;88.06;102744.00;8694713;33;20876;-76
2021/12/17 04:41:10;;;;;;;32.38;13.07;;;;;;;6.90;88.96;102727.63;8741832;33;20455;-76
2021/12/17 04:46:23;;;;;;;25.52;12.65;;;;;;;6.99;88.93;102729.16;8719067;33;20190;-76
2021/12/17 05:02:17;;;;;;;20.73;10.38;;;;;;;7.09;89.21;102754.72;8726412;33;20191;-76
2021/12/17 05:07:29;;;;;;;20.48;11.15;;;;;;;7.09;89.14;102741.34;8743189;33;20134;-76
2021/12/17 05:23:27;;;;;;;19.10;8.98;;;;;;;7.12;89.40;102759.09;8691011;33;20183;-76
2021/12/17 05:28:32;;;;;;;22.88;10.35;;;;;;;7.25;89.39;102776.53;8691881;33;20461;-76
2021/12/17 05:33:37;;;;;;;29.48;11.65;;;;;;;7.22;89.15;102764.13;8692171;33;20874;-76
2021/12/17 05:38:40;;;;;;;24.30;10.23;;;;;;;7.15;89.21;102757.19;8691622;33;20726;-76
2021/12/17 05:43:54;;;;;;;19.85;9.50;;;;;;;7.10;89.21;102763.59;8692646;33;20184;-76
2021/12/17 05:48:57;;;;;;;20.25;9.25;;;;;;;7.16;89.08;102758.97;8693339;33;20190;-76
2021/12/17 05:54:04;;;;;;;18.40;8.98;;;;;;;7.16;89.24;102755.38;8717532;33;21949;-76
2021/12/17 05:59:10;;;;;;;20.80;9.27;;;;;;;7.15;89.01;102740.28;8722725;33;20137;-76
2021/12/17 06:04:13;;;;;;;18.95;8.82;;;;;;;7.10;88.93;102732.38;8716424;33;21445;-76
2021/12/17 06:09:31;;;;;;;18.55;8.45;;;;;;;7.15;88.99;102748.31;8737367;33;20246;-76
2021/12/17 06:14:39;;;;;;;16.17;8.23;;;;;;;7.16;89.17;102747.38;8690347;33;20692;-76
2021/12/17 06:19:43;;;;;;;16.80;9.88;;;;;;;7.18;89.23;102754.44;8737165;33;20652;-76
2021/12/17 06:24:47;;;;;;;18.10;8.57;;;;;;;7.19;89.27;102742.84;8690345;33;20609;-76
2021/12/17 06:29:54;;;;;;;17.42;7.80;;;;;;;7.17;89.10;102755.38;8690165;33;20330;-77
2021/12/17 06:34:57;;;;;;;18.27;7.57;;;;;;;7.10;89.03;102759.13;8690310;33;20218;-76
2021/12/17 06:40:02;;;;;;;18.67;8.38;;;;;;;7.13;89.13;102764.41;8689641;33;20707;-76
2021/12/17 06:45:18;;;;;;;17.38;8.30;;;;;;;7.14;89.19;102759.94;8690369;33;20513;-76
2021/12/17 07:35:25;;;;;;;11.35;6.53;;;;;;;6.90;88.91;102810.47;8753064;33;20200;-76
2021/12/17 07:40:29;;;;;;;15.27;6.47;;;;;;;6.94;89.20;102808.56;8776074;32;20643;-77
2021/12/17 07:45:33;;;;;;;13.23;6.47;;;;;;;6.97;89.17;102803.19;8753114;33;20583;-76
2021/12/17 07:50:44;;;;;;;10.73;5.93;;;;;;;6.96;89.13;102802.28;8752018;33;20160;-76
2021/12/17 07:56:12;;;;;;;11.15;5.15;;;;;;;6.96;89.19;102807.63;8751841;33;20597;-76
2021/12/17 08:01:16;;;;;;;16.23;6.25;;;;;;;7.10;89.68;102807.22;8751105;33;20174;-76
2021/12/17 08:06:24;;;;;;;16.88;7.07;;;;;;;7.32;89.56;102791.47;8751387;33;20944;-75
2021/12/17 08:11:55;;;;;;;11.75;6.38;;;;;;;7.35;89.29;102793.16;8751755;33;20152;-76
2021/12/17 08:17:09;;;;;;;7.85;4.97;;;;;;;7.37;89.36;102783.31;8752787;33;20158;-76
2021/12/17 08:27:48;;;;;;;9.68;4.95;;;;;;;7.33;88.83;102781.66;8752858;33;20485;-76
2021/12/17 08:32:52;;;;;;;6.80;4.07;;;;;;;7.39;89.07;102794.84;8751713;33;20568;-76
2021/12/17 08:37:58;;;;;;;7.25;3.97;;;;;;;7.39;88.80;102794.84;8752400;33;20564;-75
2021/12/17 08:43:02;;;;;;;4.18;3.28;;;;;;;7.43;88.93;102801.84;8751412;33;20182;-75
2021/12/17 08:48:08;;;;;;;7.25;4.72;;;;;;;7.42;88.81;102802.78;8752424;33;20270;-75
2021/12/17 08:53:21;;;;;;;7.40;3.80;;;;;;;7.34;88.66;102810.16;8749774;33;20218;-75
2021/12/17 08:58:24;;;;;;;8.18;4.07;;;;;;;7.29;88.41;102810.25;8751785;33;21988;-75
2021/12/17 09:03:30;;;;;;;7.38;3.75;;;;;;;7.30;88.70;102820.06;8750892;33;20687;-76
2021/12/17 09:08:55;;;;;;;8.30;4.30;;;;;;;7.28;88.79;102825.44;8750932;33;22046;-76
2021/12/17 09:14:01;;;;;;;8.18;3.60;;;;;;;7.15;88.07;102829.38;8749025;33;20582;-77
2021/12/17 09:19:15;;;;;;;7.20;3.90;;;;;;;7.20;88.62;102839.94;8745190;33;20442;-74
2021/12/17 09:24:37;;;;;;;6.30;3.33;;;;;;;7.24;88.54;102853.19;8749510;33;20839;-74
2021/12/17 09:29:49;;;;;;;8.10;4.15;;;;;;;7.28;88.24;102854.84;8775502;33;20197;-74
2021/12/17 09:34:52;;;;;;;6.07;3.35;;;;;;;7.34;88.38;102852.94;8774888;33;20209;-75
2021/12/17 09:39:56;;;;;;;6.30;3.50;;;;;;;7.38;88.19;102862.63;8774688;33;20190;-75
2021/12/17 09:44:59;;;;;;;6.07;3.60;;;;;;;7.39;87.90;102857.22;8775220;33;20440;-75
2021/12/17 09:50:03;;;;;;;6.43;3.33;;;;;;;7.50;87.82;102859.59;8775368;33;21058;-74
2021/12/17 09:55:09;;;;;;;7.68;3.58;;;;;;;7.51;87.43;102847.97;8749820;33;20212;-74
2021/12/17 10:00:16;;;;;;;7.93;3.30;;;;;;;7.50;86.94;102846.22;8780949;33;20190;-74
2021/12/17 10:05:23;;;;;;;6.38;3.45;;;;;;;7.43;86.33;102852.66;8782511;33;20163;-74
2021/12/17 10:10:36;;;;;;;5.45;4.18;;;;;;;7.46;86.96;102853.47;8782710;33;20679;-75
2021/12/17 10:15:42;;;;;;;7.60;4.07;;;;;;;7.64;87.25;102856.53;8781245;33;21126;-75
2021/12/17 10:20:56;;;;;;;8.85;4.50;;;;;;;7.58;85.94;102852.22;8749668;33;20392;-74
2021/12/17 10:26:02;;;;;;;7.53;4.03;;;;;;;7.72;85.76;102850.00;8775091;33;20877;-74
2021/12/17 10:31:11;;;;;;;9.02;4.85;;;;;;;7.66;84.43;102843.97;8749441;33;20186;-75
2021/12/17 10:36:14;;;;;;;6.70;4.18;;;;;;;7.69;83.68;102838.53;8774924;33;20182;-75
2021/12/17 10:41:48;;;;;;;8.00;4.15;;;;;;;7.76;84.33;102844.56;8775136;33;20213;-75
2021/12/17 10:47:09;;;;;;;8.95;4.70;;;;;;;7.78;84.16;102843.59;8775037;33;20922;-75
2021/12/17 10:52:16;;;;;;;6.35;4.18;;;;;;;7.83;83.89;102849.69;8775271;33;20258;-75
2021/12/17 10:57:30;;;;;;;6.03;3.45;;;;;;;7.63;82.04;102842.28;8774191;33;20410;-74
2021/12/17 11:02:37;;;;;;;7.85;3.20;;;;;;;7.63;81.42;102849.44;8786652;33;20182;-74
2021/12/17 11:07:45;;;;;;;8.82;4.30;;;;;;;7.76;82.35;102855.28;8793196;33;20329;-75
2021/12/17 11:12:49;;;;;;;6.07;3.80;;;;;;;7.71;81.53;102845.59;8780902;33;20267;-74
2021/12/17 11:17:57;;;;;;;7.18;4.25;;;;;;;7.70;80.36;102853.66;8774332;33;20545;-74
2021/12/17 11:23:08;;;;;;;7.57;4.50;;;;;;;7.59;79.85;102853.09;8774180;33;20178;-75
2021/12/17 11:28:13;;;;;;;8.27;5.10;;;;;;;7.62;80.54;102856.56;8772950;33;20658;-74
2021/12/17 11:33:16;;;;;;;11.85;5.97;;;;;;;7.63;79.72;102849.44;8763597;33;20440;-75
2021/12/17 11:38:34;;;;;;;13.95;6.15;;;;;;;7.48;79.21;102835.56;8754996;33;21102;-74
2021/12/17 11:43:54;;;;;;;9.80;6.18;;;;;;;7.61;80.93;102851.25;8772285;33;20793;-75
2021/12/17 11:49:00;;;;;;;10.50;5.78;;;;;;;7.33;79.46;102854.75;8770261;33;20193;-76
2021/12/17 11:54:08;;;;;;;13.02;7.45;;;;;;;7.53;80.22;102854.16;8773121;33;20462;-76
2021/12/17 11:59:37;;;;;;;15.73;10.93;;;;;;;7.58;81.24;102854.91;8773192;33;20245;-76
2021/12/17 12:04:44;;;;;;;12.07;7.15;;;;;;;7.62;81.27;102853.00;8773364;33;20270;-76
2021/12/17 12:10:01;;;;;;;11.80;6.47;;;;;;;7.56;80.54;102848.72;8772592;33;20143;-76
2021/12/17 12:15:36;;;;;;;13.75;8.43;;;;;;;7.58;81.34;102854.03;8748328;33;20186;-77
2021/12/17 12:20:59;;;;;;;11.48;6.93;;;;;;;7.66;82.50;102849.34;8752438;33;20201;-77
2021/12/17 12:26:19;;;;;;;12.20;7.32;;;;;;;7.68;82.75;102853.72;8777865;33;20244;-76
2021/12/17 12:31:51;;;;;;;14.15;7.72;;;;;;;7.64;81.69;102844.00;8777643;33;20279;-77
2021/12/17 12:36:57;;;;;;;13.55;7.13;;;;;;;7.60;81.71;102850.41;8777763;33;20981;-77
2021/12/17 12:42:05;;;;;;;13.15;6.72;;;;;;;7.66;82.49;102854.69;8777421;33;20266;-74
2021/12/17 12:47:12;;;;;;;16.67;8.70;;;;;;;7.72;82.88;102844.66;8778063;33;20183;-74
2021/12/17 12:52:22;;;;;;;15.35;8.52;;;;;;;7.65;82.03;102842.22;8776871;33;20516;-75
2021/12/17 12:57:28;;;;;;;16.52;8.68;;;;;;;7.69;82.32;102847.44;8777181;33;20245;-74
2021/12/17 13:02:33;;;;;;;14.60;7.50;;;;;;;7.54;80.56;102838.97;8776159;33;20259;-77
2021/12/17 13:07:40;;;;;;;12.90;7.07;;;;;;;7.48;80.16;102830.22;8776465;33;20225;-74
2021/12/17 13:12:51;;;;;;;13.98;7.40;;;;;;;7.55;80.37;102836.28;8776309;33;20263;-74
2021/12/17 13:23:25;;;;;;;15.18;8.13;;;;;;;7.60;81.07;102833.47;8776228;33;21602;-74
2021/12/17 13:28:28;;;;;;;10.80;7.15;;;;;;;7.58;79.63;102828.16;8776126;33;20442;-74
2021/12/17 13:33:39;;;;;;;14.85;7.18;;;;;;;7.67;80.05;102824.31;8775602;33;20200;-74
2021/12/17 13:38:42;;;;;;;12.85;6.78;;;;;;;7.69;80.75;102817.13;8775591;33;20186;-74
2021/12/17 13:43:47;;;;;;;13.27;6.90;;;;;;;7.63;81.11;102820.00;8775633;33;20136;-74
2021/12/17 13:48:51;;;;;;;10.07;5.90;;;;;;;7.42;79.36;102824.19;8775929;33;20232;-74
2021/12/17 13:53:57;;;;;;;15.75;7.20;;;;;;;7.43;80.59;102821.47;8774192;33;20476;-75
2021/12/17 13:59:13;;;;;;;15.82;8.85;;;;;;;7.32;78.93;102820.88;8771031;33;20182;-75
2021/12/17 14:04:17;;;;;;;21.92;11.82;;;;;;;7.25;78.92;102813.97;8775497;33;20291;-74
2021/12/17 14:09:23;;;;;;;21.95;11.50;;;;;;;7.37;79.28;102834.13;8774244;33;20306;-75
2021/12/17 14:14:29;;;;;;;23.40;11.43;;;;;;;7.39;79.18;102833.16;8774125;33;20259;-74
2021/12/17 14:19:43;;;;;;;12.45;7.38;;;;;;;7.34;78.13;102826.19;8771063;33;20326;-75
2021/12/17 14:24:46;;;;;;;13.73;7.00;;;;;;;7.12;76.38;102820.56;8745587;33;20183;-74
2021/12/17 14:30:03;;;;;;;9.00;6.25;;;;;;;7.17;76.39;102822.19;8770228;33;21976;-75
2021/12/17 14:35:09;;;;;;;24.05;13.13;;;;;;;7.17;77.25;102819.53;8772302;33;20155;-75
2021/12/17 14:40:25;;;;;;;23.42;10.88;;;;;;;7.11;76.75;102821.50;8772457;33;20594;-74
2021/12/17 14:45:34;;;;;;;12.93;6.65;;;;;;;7.10;76.12;102835.78;8773642;33;20701;-74
2021/12/17 15:01:37;;;;;;;9.45;5.38;;;;;;;7.02;76.20;102815.50;8773378;33;20139;-75
2021/12/17 15:06:41;;;;;;;12.63;6.13;;;;;;;6.99;76.41;102820.94;8748639;33;20179;-75
2021/12/17 15:11:45;;;;;;;17.92;8.82;;;;;;;6.99;76.72;102818.25;8772911;33;20190;-76
2021/12/17 15:16:48;;;;;;;12.65;7.88;;;;;;;6.98;77.20;102819.16;8772976;33;20190;-75
2021/12/17 15:21:52;;;;;;;13.00;7.30;;;;;;;6.99;77.57;102812.00;8772751;33;20179;-76
2021/12/17 15:27:13;;;;;;;11.35;5.32;;;;;;;6.64;76.71;102808.47;8773781;33;20473;-76
2021/12/17 15:32:16;;;;;;;10.32;6.50;;;;;;;6.82;77.30;102809.75;8773313;33;21495;-75
2021/12/17 15:37:20;;;;;;;11.40;6.95;;;;;;;6.83;77.13;102824.91;8773082;33;20583;-75
2021/12/17 15:42:24;;;;;;;9.93;6.28;;;;;;;6.82;76.07;102826.66;8772194;33;20186;-76
2021/12/17 15:47:27;;;;;;;10.85;7.28;;;;;;;6.83;75.99;102831.13;8772062;33;20240;-75
2021/12/17 15:52:31;;;;;;;11.82;6.45;;;;;;;6.84;75.75;102832.84;8777618;33;20853;-76
2021/12/17 15:57:34;;;;;;;11.27;6.95;;;;;;;6.84;75.94;102838.19;8777612;33;20148;-75
2021/12/17 16:02:40;;;;;;;13.75;7.32;;;;;;;6.87;75.86;102833.69;8776899;33;20120;-75
2021/12/17 16:07:48;;;;;;;10.13;6.57;;;;;;;6.82;75.93;102840.03;8777713;33;20128;-75
2021/12/17 16:18:17;;;;;;;11.77;6.50;;;;;;;6.78;76.14;102832.16;8777296;33;20198;-75
2021/12/17 16:23:21;;;;;;;17.00;6.90;;;;;;;6.75;76.31;102834.91;8777137;33;21805;-76
2021/12/17 16:28:25;;;;;;;15.80;8.68;;;;;;;6.63;76.61;102828.06;8776989;33;20179;-75
2021/12/17 16:33:28;;;;;;;21.38;11.10;;;;;;;6.73;76.98;102839.41;8751983;33;20190;-76
2021/12/17 16:38:33;;;;;;;19.40;9.60;;;;;;;6.58;76.52;102835.31;8777463;33;20601;-76
2021/12/17 16:43:37;;;;;;;21.40;10.25;;;;;;;6.68;76.63;102836.84;8752234;33;20259;-76
2021/12/17 16:48:44;;;;;;;45.08;19.77;;;;;;;6.76;76.39;102840.19;8777460;33;20209;-74
2021/12/17 16:53:48;;;;;;;16.30;8.73;;;;;;;6.76;76.11;102832.19;8752226;33;20185;-77
2021/12/17 16:58:52;;;;;;;21.38;10.63;;;;;;;6.76;76.04;102826.84;8781472;33;20937;-77
2021/12/17 17:03:58;;;;;;;15.43;9.18;;;;;;;6.60;75.99;102821.00;8788670;33;20170;-76
2021/12/17 17:09:11;;;;;;;20.13;11.10;;;;;;;6.67;75.64;102832.44;8783448;33;20533;-77
2021/12/17 17:14:14;;;;;;;22.83;11.55;;;;;;;6.71;75.38;102838.56;8777917;33;21852;-76
2021/12/17 17:19:17;;;;;;;18.23;10.68;;;;;;;6.73;75.32;102845.63;8777363;33;20190;-77
2021/12/17 17:24:21;;;;;;;28.90;13.30;;;;;;;6.76;75.47;102845.53;8777267;33;20498;-77
2021/12/17 17:29:24;;;;;;;18.50;9.00;;;;;;;6.75;75.49;102840.25;8777081;33;20320;-77
2021/12/17 17:34:28;;;;;;;15.98;8.75;;;;;;;6.76;75.67;102826.84;8776781;33;20213;-77
2021/12/17 17:39:33;;;;;;;17.27;8.85;;;;;;;6.70;75.93;102826.13;8776738;33;20183;-76
2021/12/17 17:44:36;;;;;;;13.10;8.10;;;;;;;6.73;76.09;102821.56;8777426;33;20774;-75
2021/12/17 17:49:39;;;;;;;15.90;9.05;;;;;;;6.56;76.72;102823.81;8776078;33;20182;-76
2021/12/17 17:54:44;;;;;;;17.52;9.20;;;;;;;6.59;76.60;102826.41;8775706;33;20202;-76
2021/12/17 17:59:48;;;;;;;17.15;9.02;;;;;;;6.58;77.00;102833.53;8774848;33;20454;-75
2021/12/17 18:04:51;;;;;;;16.60;9.32;;;;;;;6.48;76.94;102839.16;8776254;33;20214;-75
2021/12/17 18:09:55;;;;;;;17.90;9.77;;;;;;;6.66;76.93;102853.81;8776595;33;21429;-77
2021/12/17 18:14:58;;;;;;;18.75;9.43;;;;;;;6.62;77.12;102831.66;8775446;33;20155;-76
2021/12/17 18:20:01;;;;;;;12.70;7.70;;;;;;;6.52;77.83;102830.13;8750197;33;20271;-77
2021/12/17 18:25:09;;;;;;;16.48;8.90;;;;;;;6.59;78.07;102834.41;8780856;33;20140;-77
2021/12/17 18:30:15;;;;;;;13.95;7.82;;;;;;;6.60;78.41;102833.50;8777786;33;20143;-77
2021/12/17 18:35:18;;;;;;;13.63;7.72;;;;;;;6.61;78.48;102837.94;8776035;33;20186;-76
2021/12/17 18:40:26;;;;;;;16.48;8.13;;;;;;;6.48;79.07;102833.81;8775482;33;20395;-77
2021/12/17 18:45:29;;;;;;;13.65;7.57;;;;;;;6.62;79.50;102842.34;8777264;33;20178;-76
2021/12/17 18:50:32;;;;;;;17.08;8.38;;;;;;;6.70;79.29;102835.00;8778203;33;20205;-76
2021/12/17 18:55:38;;;;;;;15.85;7.82;;;;;;;6.63;79.54;102833.41;8777577;33;20202;-76
2021/12/17 19:00:45;;;;;;;15.40;8.15;;;;;;;6.62;79.81;102835.22;8777277;33;20643;-76
2021/12/17 19:05:48;;;;;;;16.80;8.73;;;;;;;6.64;80.04;102832.50;8751338;33;20787;-77
2021/12/17 19:10:53;;;;;;;16.45;9.20;;;;;;;6.50;80.79;102826.63;8776728;33;20773;-76
2021/12/17 19:15:56;;;;;;;14.68;8.40;;;;;;;6.47;81.57;102818.69;8751810;33;20135;-76
2021/12/17 19:21:05;;;;;;;15.43;8.75;;;;;;;6.39;81.82;102825.13;8777053;33;20136;-75
2021/12/17 19:26:09;;;;;;;15.55;8.00;;;;;;;6.25;82.63;102829.88;8776142;33;20582;-76
2021/12/17 19:31:15;;;;;;;18.98;10.40;;;;;;;6.20;83.04;102829.16;8775409;33;20135;-77
2021/12/17 19:36:29;;;;;;;20.85;10.15;;;;;;;6.22;83.45;102829.09;8750184;33;20119;-77
2021/12/17 19:41:35;;;;;;;24.83;12.68;;;;;;;6.11;83.90;102827.56;8773403;33;20337;-77
2021/12/17 19:46:43;;;;;;;24.15;13.57;;;;;;;6.02;84.86;102824.22;8773764;33;20186;-77
2021/12/17 19:51:47;;;;;;;21.25;11.23;;;;;;;6.06;85.14;102831.25;8772222;33;20167;-75
2021/12/17 19:56:52;;;;;;;22.58;11.13;;;;;;;6.03;85.05;102825.97;8754226;33;20235;-75
2021/12/17 20:02:10;;;;;;;26.08;12.15;;;;;;;5.97;85.45;102821.66;8721974;33;20135;-75
2021/12/17 20:07:14;;;;;;;25.60;11.82;;;;;;;6.06;85.18;102826.81;8774769;33;20159;-75
2021/12/17 20:12:19;;;;;;;24.63;13.13;;;;;;;6.08;85.29;102826.75;8774360;33;20172;-75
2021/12/17 20:17:22;;;;;;;26.60;13.07;;;;;;;5.87;85.77;102822.78;8774417;33;20208;-75
2021/12/17 20:22:25;;;;;;;24.50;12.00;;;;;;;5.87;86.35;102825.44;8773096;33;20290;-75
2021/12/17 20:27:31;;;;;;;28.10;13.40;;;;;;;5.83;86.65;102829.97;8774025;33;20179;-77
2021/12/17 20:32:34;;;;;;;26.00;13.52;;;;;;;6.06;86.23;102841.91;8748760;33;20333;-77
2021/12/17 20:37:38;;;;;;;24.25;12.02;;;;;;;6.09;85.83;102836.53;8776233;33;20170;-77
2021/12/17 20:42:56;;;;;;;27.05;12.45;;;;;;;6.14;85.86;102839.94;8780073;33;20336;-77
2021/12/17 20:48:01;;;;;;;25.77;11.00;;;;;;;6.10;85.98;102832.94;8753449;33;21097;-77
2021/12/17 20:53:08;;;;;;;21.45;11.07;;;;;;;6.07;86.15;102830.34;8778083;33;20186;-77
2021/12/17 20:58:13;;;;;;;26.50;13.25;;;;;;;6.03;86.23;102832.19;8778572;33;20270;-77
2021/12/17 21:03:16;;;;;;;24.25;12.25;;;;;;;6.08;86.24;102826.75;8777811;33;20193;-77
2021/12/17 21:08:20;;;;;;;19.08;10.20;;;;;;;6.04;86.56;102820.63;8777574;33;20139;-77
2021/12/17 21:13:26;;;;;;;24.77;11.32;;;;;;;5.99;86.82;102808.31;8778452;33;21047;-76
2021/12/17 21:18:30;;;;;;;21.50;10.57;;;;;;;6.02;87.27;102821.56;8779569;33;20340;-77
2021/12/17 21:23:33;;;;;;;20.58;11.00;;;;;;;6.22;86.87;102831.75;8780349;33;21136;-77
2021/12/17 21:28:38;;;;;;;22.98;10.57;;;;;;;6.36;86.60;102835.88;8753377;33;21092;-77
2021/12/17 21:33:45;;;;;;;23.63;10.73;;;;;;;6.32;86.33;102844.84;8778067;33;20323;-78
2021/12/17 21:38:48;;;;;;;24.08;10.88;;;;;;;6.31;86.66;102835.09;8780554;33;20412;-77
2021/12/17 21:43:54;;;;;;;20.48;10.95;;;;;;;6.39;86.32;102848.28;8751226;33;20464;-77
2021/12/17 21:48:57;;;;;;;23.40;10.77;;;;;;;6.22;86.56;102840.66;8775454;33;20152;-77
2021/12/17 21:54:01;;;;;;;22.40;11.23;;;;;;;6.32;86.51;102839.53;8773397;33;20211;-76
2021/12/17 21:59:05;;;;;;;21.40;11.23;;;;;;;6.13;87.28;102835.53;8775837;33;20186;-77
2021/12/17 22:04:12;;;;;;;23.02;10.48;;;;;;;6.19;87.18;102827.38;8750746;33;20247;-77
2021/12/17 22:09:16;;;;;;;21.77;10.82;;;;;;;6.32;86.72;102822.63;8775608;33;20135;-77
2021/12/17 22:14:21;;;;;;;19.80;9.90;;;;;;;6.15;87.29;102815.03;8742283;33;20210;-77
2021/12/17 22:19:26;;;;;;;17.30;9.65;;;;;;;6.14;87.72;102807.91;8775179;33;20190;-78
2021/12/17 22:24:30;;;;;;;21.35;10.40;;;;;;;6.21;87.86;102817.53;8777083;33;20491;-77
2021/12/17 22:29:34;;;;;;;22.98;10.65;;;;;;;6.31;87.45;102824.44;8777434;33;20187;-77
2021/12/17 22:34:37;;;;;;;23.20;10.38;;;;;;;6.31;87.70;102832.44;8777822;33;20957;-77
2021/12/17 22:39:41;;;;;;;22.30;10.65;;;;;;;6.45;87.70;102820.53;8776719;33;20159;-76
2021/12/17 22:44:54;;;;;;;19.08;10.30;;;;;;;6.40;87.70;102821.53;8776296;33;20193;-76
2021/12/17 22:49:57;;;;;;;32.17;13.52;;;;;;;6.52;87.77;102825.66;8715304;33;20171;-76
2021/12/17 22:55:01;;;;;;;23.60;11.20;;;;;;;6.60;87.75;102828.16;8701792;33;20706;-75
2021/12/17 23:00:12;;;;;;;18.65;10.07;;;;;;;6.59;87.68;102826.41;8716965;33;20183;-74
2021/12/17 23:05:15;;;;;;;23.65;11.52;;;;;;;6.38;87.71;102819.78;8717705;33;20193;-75
2021/12/17 23:10:23;;;;;;;18.40;9.55;;;;;;;6.38;88.27;102812.66;8717950;33;20206;-75
2021/12/17 23:15:28;;;;;;;23.23;10.15;;;;;;;6.36;88.20;102809.19;8744280;33;20353;-75
2021/12/17 23:20:31;;;;;;;17.65;8.80;;;;;;;6.35;88.36;102793.19;8738493;33;20384;-75
2021/12/17 23:25:34;;;;;;;19.02;9.93;;;;;;;6.34;88.48;102781.63;8719884;33;20621;-76
2021/12/17 23:30:38;;;;;;;16.70;9.40;;;;;;;6.22;89.27;102781.91;8717947;33;20520;-75
2021/12/17 23:35:44;;;;;;;17.30;9.50;;;;;;;6.40;88.64;102780.59;8717493;33;20163;-76
2021/12/17 23:40:48;;;;;;;16.10;8.88;;;;;;;6.41;88.60;102779.66;8715722;33;20247;-75
2021/12/17 23:45:53;;;;;;;17.20;9.05;;;;;;;6.39;88.78;102779.72;8716979;33;20285;-75
2021/12/17 23:50:56;;;;;;;18.40;9.05;;;;;;;6.32;89.20;102771.91;8715934;33;20515;-75
2021/12/17 23:55:59;;;;;;;19.10;10.93;;;;;;;6.40;88.76;102762.78;8715742;33;20286;-75
